createdAt,value
2019-05-23T00:00:20.153Z,11.10
2019-05-23T00:03:08.816Z,13.40
2019-05-23T00:06:00.209Z,13.77
2019-05-23T00:08:49.257Z,11.03
2019-05-23T00:11:40.381Z,15.10
2019-05-23T00:14:20.009Z,13.77
2019-05-23T00:16:49.428Z,14.67
2019-05-23T00:19:18.690Z,13.77
2019-05-23T00:21:48.868Z,13.37
2019-05-23T00:24:18.084Z,13.43
2019-05-23T00:26:47.642Z,12.27
2019-05-23T00:29:16.674Z,14.27
2019-05-23T00:31:51.249Z,15.20
2019-05-23T00:34:21.359Z,12.87
2019-05-23T00:36:51.084Z,12.00
2019-05-23T00:39:20.097Z,12.90
2019-05-23T00:41:49.123Z,12.53
2019-05-23T00:44:18.068Z,17.13
2019-05-23T00:46:47.274Z,13.40
2019-05-23T00:49:16.721Z,13.53
2019-05-23T00:51:46.455Z,11.03
2019-05-23T00:54:15.750Z,14.93
2019-05-23T00:56:45.531Z,12.80
2019-05-23T00:59:26.706Z,11.60
2019-05-23T01:01:46.390Z,11.40
2019-05-23T01:04:16.635Z,13.13
2019-05-23T01:06:45.605Z,13.43
2019-05-23T01:09:14.685Z,11.43
2019-05-23T01:11:44.071Z,12.13
2019-05-23T01:14:13.779Z,14.67
2019-05-23T01:16:42.748Z,13.50
2019-05-23T01:19:12.661Z,15.03
2019-05-23T01:21:56.018Z,15.47
2019-05-23T01:24:42.071Z,13.27
2019-05-23T01:27:12.395Z,16.47
2019-05-23T01:29:43.717Z,15.70
2019-05-23T01:32:30.993Z,13.87
2019-05-23T01:35:00.002Z,16.77
2019-05-23T01:37:28.986Z,22.00
2019-05-23T01:39:58.341Z,15.30
2019-05-23T01:42:28.064Z,17.30
2019-05-23T01:44:58.348Z,17.40
2019-05-23T01:47:27.548Z,15.87
2019-05-23T01:49:56.763Z,17.27
2019-05-23T01:52:26.090Z,15.73
2019-05-23T01:54:55.411Z,16.20
2019-05-23T01:57:24.381Z,14.63
2019-05-23T02:00:08.236Z,17.13
2019-05-23T02:02:24.137Z,17.67
2019-05-23T02:04:53.080Z,17.53
2019-05-23T02:07:22.049Z,17.27
2019-05-23T02:09:50.988Z,19.27
2019-05-23T02:12:20.287Z,14.13
2019-05-23T02:14:49.401Z,19.37
2019-05-23T02:17:19.333Z,18.63
2019-05-23T02:19:49.116Z,15.53
2019-05-23T02:22:18.071Z,18.03
2019-05-23T02:24:48.755Z,17.00
2019-05-23T02:27:17.779Z,18.20
2019-05-23T02:29:47.702Z,15.93
2019-05-23T02:32:17.895Z,16.73
2019-05-23T02:34:47.785Z,17.57
2019-05-23T02:37:30.640Z,17.77
2019-05-23T02:43:09.695Z,17.90
2019-05-23T02:45:50.657Z,16.87
2019-05-23T02:48:25.688Z,16.07
2019-05-23T02:50:56.194Z,17.03
2019-05-23T02:53:28.026Z,19.33
2019-05-23T02:55:59.448Z,18.47
2019-05-23T02:58:40.239Z,19.40
2019-05-23T03:01:17.620Z,17.40
2019-05-23T03:03:47.060Z,19.63
2019-05-23T03:06:18.028Z,18.50
2019-05-23T03:08:48.428Z,17.63
2019-05-23T03:11:28.756Z,18.87
2019-05-23T03:13:57.768Z,18.00
2019-05-23T03:16:28.431Z,16.23
2019-05-23T03:18:59.577Z,16.13
2019-05-23T03:21:29.100Z,16.80
2019-05-23T03:23:58.827Z,22.67
2019-05-23T03:26:33.074Z,17.70
2019-05-23T03:29:02.783Z,21.33
2019-05-23T03:31:36.424Z,17.30
2019-05-23T03:34:05.441Z,18.57
2019-05-23T03:36:34.468Z,17.03
2019-05-23T03:39:05.968Z,18.80
2019-05-23T03:41:35.318Z,19.83
2019-05-23T03:44:04.687Z,20.33
2019-05-23T03:46:34.919Z,20.23
2019-05-23T03:49:05.201Z,21.27
2019-05-23T03:51:34.441Z,19.43
2019-05-23T03:54:04.157Z,18.83
2019-05-23T03:56:33.843Z,23.67
2019-05-23T03:59:04.350Z,20.57
2019-05-23T04:01:47.107Z,21.77
2019-05-23T04:04:06.957Z,19.20
2019-05-23T04:06:35.892Z,22.27
2019-05-23T04:09:07.093Z,18.43
2019-05-23T04:11:36.801Z,19.13
2019-05-23T04:14:06.895Z,18.43
2019-05-23T04:16:36.878Z,18.77
2019-05-23T04:19:05.904Z,18.60
2019-05-23T04:21:35.820Z,18.53
2019-05-23T04:24:05.448Z,19.60
2019-05-23T04:26:34.409Z,21.23
2019-05-23T04:29:03.503Z,22.53
2019-05-23T04:31:34.313Z,25.63
2019-05-23T04:34:04.049Z,23.40
2019-05-23T04:36:33.003Z,19.23
2019-05-23T04:39:02.082Z,23.00
2019-05-23T04:41:32.486Z,21.33
2019-05-23T04:44:04.074Z,22.67
2019-05-23T04:46:33.807Z,23.23
2019-05-23T04:49:02.780Z,20.40
2019-05-23T04:51:32.434Z,25.83
2019-05-23T04:54:01.713Z,20.67
2019-05-23T04:56:30.659Z,19.63
2019-05-23T04:59:00.672Z,20.83
2019-05-23T05:01:29.980Z,17.90
2019-05-23T05:04:00.484Z,17.43
2019-05-23T05:06:29.454Z,17.07
2019-05-23T05:09:00.231Z,16.93
2019-05-23T05:11:30.538Z,18.70
2019-05-23T05:13:59.912Z,19.07
2019-05-23T05:16:29.031Z,17.03
2019-05-23T05:18:58.059Z,16.83
2019-05-23T05:21:27.013Z,15.57
2019-05-23T05:23:55.978Z,15.47
2019-05-23T05:26:24.927Z,15.27
2019-05-23T05:28:54.076Z,17.87
2019-05-23T05:31:23.024Z,15.47
2019-05-23T05:33:52.051Z,15.40
2019-05-23T05:36:20.987Z,17.07
2019-05-23T05:38:50.719Z,15.17
2019-05-23T05:41:20.461Z,13.38
2019-05-23T05:43:49.411Z,14.63
2019-05-23T05:46:18.841Z,11.30
2019-05-23T05:48:47.907Z,10.95
2019-05-23T05:51:16.947Z,11.15
2019-05-23T05:53:46.614Z,12.20
2019-05-23T05:56:15.643Z,10.32
2019-05-23T05:58:44.651Z,10.08
2019-05-23T06:01:13.941Z,11.15
2019-05-23T06:03:42.962Z,11.10
2019-05-23T06:06:29.056Z,9.80
2019-05-23T06:08:59.717Z,14.65
2019-05-23T06:11:29.044Z,11.48
2019-05-23T06:13:58.000Z,10.63
2019-05-23T06:16:26.998Z,9.13
2019-05-23T06:18:57.057Z,10.88
2019-05-23T06:21:27.758Z,9.95
2019-05-23T06:23:56.987Z,7.72
2019-05-23T06:26:25.924Z,24.32
2019-05-23T06:28:55.302Z,8.88
2019-05-23T06:31:25.128Z,8.58
2019-05-23T06:33:54.081Z,9.13
2019-05-23T06:36:23.483Z,9.43
2019-05-23T06:38:54.074Z,13.18
2019-05-23T06:41:23.971Z,10.18
2019-05-23T06:43:52.999Z,14.07
2019-05-23T06:46:22.007Z,10.85
2019-05-23T06:48:50.964Z,11.78
2019-05-23T06:51:19.895Z,9.78
2019-05-23T06:53:49.107Z,9.38
2019-05-23T06:56:18.048Z,12.68
2019-05-23T06:58:48.071Z,10.30
2019-05-23T07:01:17.011Z,11.08
2019-05-23T07:03:45.969Z,11.85
2019-05-23T07:06:16.534Z,12.15
2019-05-23T07:08:45.515Z,10.20
2019-05-23T07:11:15.984Z,11.18
2019-05-23T07:13:46.284Z,11.25
2019-05-23T07:16:15.252Z,13.48
2019-05-23T07:18:44.728Z,11.70
2019-05-23T07:21:13.861Z,12.05
2019-05-23T07:23:42.820Z,12.40
2019-05-23T07:26:12.710Z,10.48
2019-05-23T07:28:42.188Z,11.50
2019-05-23T07:31:11.915Z,11.28
2019-05-23T07:33:59.948Z,9.85
2019-05-23T07:36:13.179Z,12.50
2019-05-23T07:38:42.379Z,9.73
2019-05-23T07:41:11.344Z,12.80
2019-05-23T07:43:40.353Z,9.25
2019-05-23T07:46:09.298Z,15.58
2019-05-23T07:48:38.618Z,10.18
2019-05-23T07:51:07.565Z,10.03
2019-05-23T07:53:50.649Z,10.05
2019-05-23T07:56:21.576Z,12.88
2019-05-23T07:58:50.688Z,13.15
2019-05-23T08:01:21.288Z,14.55
2019-05-23T08:03:51.073Z,9.68
2019-05-23T08:06:20.470Z,13.62
2019-05-23T08:08:49.931Z,9.83
2019-05-23T08:11:19.352Z,10.45
2019-05-23T08:13:49.732Z,12.33
2019-05-23T08:16:18.723Z,12.40
2019-05-23T08:18:47.672Z,11.10
2019-05-23T08:21:17.188Z,11.18
2019-05-23T08:23:46.132Z,10.85
2019-05-23T08:26:16.720Z,10.03
2019-05-23T08:29:00.853Z,8.18
2019-05-23T08:31:16.620Z,8.28
2019-05-23T08:33:45.652Z,9.20
2019-05-23T08:36:15.140Z,7.97
2019-05-23T08:38:44.616Z,7.90
2019-05-23T08:41:13.845Z,8.43
2019-05-23T08:43:42.784Z,7.35
2019-05-23T08:46:12.300Z,8.18
2019-05-23T08:48:41.247Z,6.53
2019-05-23T08:51:10.220Z,6.12
2019-05-23T08:53:39.217Z,7.10
2019-05-23T08:56:18.514Z,8.18
2019-05-23T08:58:39.095Z,5.72
2019-05-23T09:01:09.217Z,5.75
2019-05-23T09:03:38.466Z,4.10
2019-05-23T09:06:07.426Z,7.35
2019-05-23T09:08:36.447Z,7.08
2019-05-23T09:11:06.141Z,5.55
2019-05-23T09:13:35.090Z,4.90
2019-05-23T09:16:04.085Z,3.85
2019-05-23T09:18:33.351Z,5.25
2019-05-23T09:21:02.296Z,8.35
2019-05-23T09:23:31.610Z,8.25
2019-05-23T09:26:00.547Z,9.63
2019-05-23T09:28:29.651Z,8.58
2019-05-23T09:30:58.894Z,8.60
2019-05-23T09:33:27.904Z,8.48
2019-05-23T09:35:57.388Z,10.23
2019-05-23T09:38:26.403Z,8.93
2019-05-23T09:40:55.348Z,12.13
2019-05-23T09:43:24.288Z,10.85
2019-05-23T09:45:53.257Z,10.25
2019-05-23T09:48:22.375Z,11.33
2019-05-23T09:50:51.328Z,12.68
2019-05-23T09:53:20.411Z,12.23
2019-05-23T09:55:49.367Z,12.13
2019-05-23T09:58:18.327Z,10.70
2019-05-23T10:00:47.672Z,10.75
2019-05-23T10:03:16.928Z,12.10
2019-05-23T10:05:46.220Z,11.88
2019-05-23T10:08:15.233Z,13.08
2019-05-23T10:10:44.619Z,10.53
2019-05-23T10:13:14.241Z,11.40
2019-05-23T10:15:44.896Z,9.05
2019-05-23T10:18:15.558Z,12.55
2019-05-23T10:20:44.667Z,13.62
2019-05-23T10:23:13.640Z,11.03
2019-05-23T10:25:42.580Z,11.80
2019-05-23T10:28:12.028Z,11.85
2019-05-23T10:30:41.033Z,13.88
2019-05-23T10:33:12.840Z,10.03
2019-05-23T10:35:58.546Z,15.10
2019-05-23T10:38:12.854Z,10.05
2019-05-23T10:40:42.232Z,11.15
2019-05-23T10:43:11.316Z,9.43
2019-05-23T10:45:40.271Z,10.28
2019-05-23T10:48:09.847Z,12.35
2019-05-23T10:50:44.656Z,10.25
2019-05-23T10:53:09.610Z,6.92
2019-05-23T10:55:38.575Z,7.87
2019-05-23T10:58:07.694Z,8.08
2019-05-23T11:00:37.505Z,11.63
2019-05-23T11:03:06.861Z,7.78
2019-05-23T11:05:35.804Z,8.10
2019-05-23T11:08:06.425Z,10.68
2019-05-23T11:10:35.415Z,11.93
2019-05-23T11:13:04.536Z,10.32
2019-05-23T11:15:34.433Z,12.25
2019-05-23T11:18:06.129Z,12.28
2019-05-23T11:20:36.095Z,10.75
2019-05-23T11:23:05.492Z,8.23
2019-05-23T11:25:35.568Z,9.78
2019-05-23T11:28:04.537Z,11.45
2019-05-23T11:30:35.124Z,11.73
2019-05-23T11:33:04.100Z,11.43
2019-05-23T11:35:33.421Z,14.03
2019-05-23T11:38:02.391Z,11.63
2019-05-23T11:40:33.620Z,10.50
2019-05-23T11:43:02.172Z,12.28
2019-05-23T11:45:32.772Z,13.08
2019-05-23T11:48:01.998Z,13.53
2019-05-23T11:50:31.106Z,11.33
2019-05-23T11:53:00.141Z,12.95
2019-05-23T11:55:29.145Z,11.15
2019-05-23T11:57:58.315Z,13.58
2019-05-23T12:00:30.612Z,13.22
2019-05-23T12:03:04.489Z,12.43
2019-05-23T12:05:34.078Z,13.28
2019-05-23T12:08:06.717Z,13.62
2019-05-23T12:10:36.307Z,12.47
2019-05-23T12:13:05.703Z,11.95
2019-05-23T12:15:36.634Z,13.58
2019-05-23T12:18:06.999Z,11.95
2019-05-23T12:20:35.947Z,11.25
2019-05-23T12:23:10.510Z,11.03
2019-05-23T12:25:36.527Z,17.60
2019-05-23T12:28:07.238Z,10.55
2019-05-23T12:30:36.248Z,10.82
2019-05-23T12:33:05.217Z,12.37
2019-05-23T12:35:35.771Z,10.45
2019-05-23T12:38:04.805Z,10.65
2019-05-23T12:40:33.875Z,12.03
2019-05-23T12:43:02.893Z,10.78
2019-05-23T12:45:31.869Z,12.98
2019-05-23T12:48:02.499Z,12.73
2019-05-23T12:50:52.723Z,14.43
2019-05-23T12:53:19.796Z,14.40
2019-05-23T12:55:48.743Z,15.35
2019-05-23T12:58:18.831Z,12.80
2019-05-23T13:00:50.349Z,13.78
2019-05-23T13:03:19.738Z,13.98
2019-05-23T13:05:48.690Z,14.10
2019-05-23T13:08:18.013Z,12.23
2019-05-23T13:10:47.999Z,14.13
2019-05-23T13:13:17.903Z,14.15
2019-05-23T13:15:47.042Z,11.78
2019-05-23T13:18:16.063Z,13.50
2019-05-23T13:20:45.071Z,11.97
2019-05-23T13:23:20.704Z,10.95
2019-05-23T13:25:45.312Z,12.78
2019-05-23T13:28:14.304Z,10.15
2019-05-23T13:30:43.327Z,12.93
2019-05-23T13:33:12.748Z,10.75
2019-05-23T13:35:41.756Z,10.95
2019-05-23T13:38:10.707Z,10.60
2019-05-23T13:40:41.619Z,9.90
2019-05-23T13:43:10.810Z,12.13
2019-05-23T13:45:39.757Z,10.40
2019-05-23T13:48:08.947Z,12.43
2019-05-23T13:50:37.894Z,11.15
2019-05-23T13:53:07.491Z,12.13
2019-05-23T13:55:37.878Z,15.13
2019-05-23T13:58:07.839Z,13.55
2019-05-23T14:00:36.959Z,12.43
2019-05-23T14:03:07.042Z,9.40
2019-05-23T14:05:36.006Z,10.63
2019-05-23T14:08:12.278Z,10.78
2019-05-23T14:10:35.738Z,12.88
2019-05-23T14:13:04.744Z,11.57
2019-05-23T14:15:41.390Z,10.03
2019-05-23T14:18:11.624Z,7.62
2019-05-23T14:20:40.703Z,10.78
2019-05-23T14:23:14.959Z,8.23
2019-05-23T14:25:44.049Z,11.22
2019-05-23T14:28:12.989Z,11.83
2019-05-23T14:30:46.503Z,8.85
2019-05-23T14:33:22.810Z,10.13
2019-05-23T14:35:53.395Z,9.50
2019-05-23T14:38:30.656Z,8.10
2019-05-23T14:40:53.374Z,7.78
2019-05-23T14:43:27.015Z,10.63
2019-05-23T14:46:14.200Z,9.48
2019-05-23T14:49:00.155Z,9.30
2019-05-23T14:51:39.655Z,7.40
2019-05-23T14:54:16.543Z,16.60
2019-05-23T14:56:45.859Z,10.95
2019-05-23T14:59:14.990Z,9.90
2019-05-23T15:01:44.190Z,8.48
2019-05-23T15:04:13.192Z,9.83
2019-05-23T15:06:42.135Z,9.18
2019-05-23T15:09:11.076Z,9.78
2019-05-23T15:11:40.368Z,8.93
2019-05-23T15:14:09.315Z,9.00
2019-05-23T15:16:38.353Z,8.73
2019-05-23T15:19:07.774Z,8.20
2019-05-23T15:21:38.403Z,8.58
2019-05-23T15:24:07.481Z,9.58
2019-05-23T15:26:36.566Z,7.87
2019-05-23T15:29:05.878Z,8.78
2019-05-23T15:31:35.059Z,10.23
2019-05-23T15:34:04.384Z,9.93
2019-05-23T15:36:33.328Z,10.85
2019-05-23T15:39:09.718Z,8.10
2019-05-23T15:41:33.038Z,7.45
2019-05-23T15:44:01.981Z,9.33
2019-05-23T15:46:30.932Z,9.10
2019-05-23T15:49:00.607Z,10.72
2019-05-23T15:51:31.272Z,6.95
2019-05-23T15:54:10.781Z,8.13
2019-05-23T15:56:47.016Z,7.87
2019-05-23T15:59:17.660Z,7.20
2019-05-23T16:01:51.037Z,7.03
2019-05-23T16:04:21.681Z,7.22
2019-05-23T16:06:50.768Z,8.40
2019-05-23T16:09:29.219Z,6.55
2019-05-23T16:11:51.546Z,6.85
2019-05-23T16:14:20.740Z,9.80
2019-05-23T16:16:49.852Z,8.78
2019-05-23T16:19:18.863Z,7.22
2019-05-23T16:21:47.880Z,8.70
2019-05-23T16:24:16.895Z,8.75
2019-05-23T16:26:46.376Z,8.38
2019-05-23T16:29:16.187Z,9.05
2019-05-23T16:31:45.131Z,9.65
2019-05-23T16:34:14.134Z,9.60
2019-05-23T16:36:43.084Z,9.15
2019-05-23T16:39:12.263Z,11.78
2019-05-23T16:41:41.210Z,10.53
2019-05-23T16:44:10.154Z,9.98
2019-05-23T16:46:39.116Z,11.25
2019-05-23T16:49:08.068Z,8.40
2019-05-23T16:51:37.091Z,11.33
2019-05-23T16:54:06.167Z,11.97
2019-05-23T16:56:52.738Z,8.73
2019-05-23T16:59:26.058Z,8.75
2019-05-23T17:02:06.066Z,10.78
2019-05-23T17:04:31.982Z,11.35
2019-05-23T17:07:02.722Z,12.93
2019-05-23T17:10:06.816Z,13.35
2019-05-23T17:12:28.226Z,12.35
2019-05-23T17:15:01.621Z,12.00
2019-05-23T17:17:49.478Z,13.60
2019-05-23T17:20:19.854Z,15.05
2019-05-23T17:22:46.769Z,16.10
2019-05-23T17:25:23.213Z,16.05
2019-05-23T17:28:03.103Z,14.30
2019-05-23T17:30:33.699Z,18.40
2019-05-23T17:33:02.879Z,15.83
2019-05-23T17:35:31.852Z,17.77
2019-05-23T17:38:01.248Z,15.45
2019-05-23T17:40:30.268Z,19.10
2019-05-23T17:42:59.234Z,21.57
2019-05-23T17:45:29.529Z,17.55
2019-05-23T17:47:58.655Z,17.37
2019-05-23T17:50:29.928Z,18.73
2019-05-23T17:52:58.934Z,13.98
2019-05-23T17:55:28.002Z,17.55
2019-05-23T17:57:57.133Z,16.93
2019-05-23T18:00:27.715Z,15.60
2019-05-23T18:02:56.674Z,16.17
2019-05-23T18:05:26.316Z,17.42
2019-05-23T18:07:55.383Z,17.23
2019-05-23T18:10:43.350Z,18.60
2019-05-23T18:12:57.107Z,17.25
2019-05-23T18:15:26.518Z,18.07
2019-05-23T18:17:58.739Z,19.70
2019-05-23T18:20:28.089Z,18.07
2019-05-23T18:22:57.320Z,24.10
2019-05-23T18:25:26.437Z,15.50
2019-05-23T18:27:55.386Z,15.18
2019-05-23T18:30:35.263Z,14.00
2019-05-23T18:33:04.571Z,14.83
2019-05-23T18:35:34.196Z,13.98
2019-05-23T18:38:04.595Z,21.12
2019-05-23T18:40:34.369Z,20.62
2019-05-23T18:43:04.797Z,16.12
2019-05-23T18:45:35.561Z,18.52
2019-05-23T18:48:04.726Z,19.35
2019-05-23T18:50:33.745Z,16.32
2019-05-23T18:53:03.204Z,14.50
2019-05-23T18:55:32.589Z,18.12
2019-05-23T18:58:01.876Z,19.37
2019-05-23T19:00:49.341Z,17.57
2019-05-23T19:03:18.372Z,18.48
2019-05-23T19:05:47.316Z,15.78
2019-05-23T19:08:17.785Z,17.82
2019-05-23T19:10:46.814Z,16.42
2019-05-23T19:13:15.765Z,18.95
2019-05-23T19:15:44.793Z,16.67
2019-05-23T19:18:18.382Z,17.40
2019-05-23T19:20:54.819Z,15.68
2019-05-23T19:23:36.772Z,17.37
2019-05-23T19:25:59.048Z,16.57
2019-05-23T19:28:29.167Z,15.45
2019-05-23T19:30:58.105Z,16.48
2019-05-23T19:33:27.060Z,15.88
2019-05-23T19:35:56.394Z,18.75
2019-05-23T19:38:25.521Z,16.80
2019-05-23T19:40:54.462Z,13.75
2019-05-23T19:43:23.492Z,15.23
2019-05-23T19:45:52.437Z,18.02
2019-05-23T19:48:22.339Z,16.25
2019-05-23T19:50:51.654Z,12.25
2019-05-23T19:53:20.602Z,12.20
2019-05-23T19:55:50.990Z,12.88
2019-05-23T19:58:20.202Z,16.70
2019-05-23T20:00:49.812Z,13.30
2019-05-23T20:03:18.947Z,13.62
2019-05-23T20:05:49.531Z,11.05
2019-05-23T20:08:18.486Z,13.32
2019-05-23T20:10:47.605Z,11.55
2019-05-23T20:13:18.717Z,12.25
2019-05-23T20:15:47.213Z,15.00
2019-05-23T20:18:16.369Z,14.20
2019-05-23T20:20:45.447Z,13.80
2019-05-23T20:23:16.164Z,13.65
2019-05-23T20:25:45.764Z,15.00
2019-05-23T20:28:14.797Z,11.73
2019-05-23T20:30:45.671Z,17.57
2019-05-23T20:33:14.981Z,14.40
2019-05-23T20:35:43.954Z,13.50
2019-05-23T20:38:13.033Z,17.00
2019-05-23T20:40:42.184Z,16.43
2019-05-23T20:43:12.268Z,14.68
2019-05-23T20:45:41.235Z,15.50
2019-05-23T20:48:11.180Z,15.70
2019-05-23T20:50:40.225Z,16.20
2019-05-23T20:53:09.368Z,16.57
2019-05-23T20:55:38.485Z,16.17
2019-05-23T20:58:07.436Z,17.33
2019-05-23T21:00:40.703Z,15.40
2019-05-23T21:03:09.644Z,18.30
2019-05-23T21:05:38.604Z,16.37
2019-05-23T21:08:07.535Z,19.93
2019-05-23T21:10:43.829Z,16.67
2019-05-23T21:13:12.836Z,13.97
2019-05-23T21:15:41.781Z,15.47
2019-05-23T21:18:11.371Z,15.20
2019-05-23T21:20:40.326Z,15.07
2019-05-23T21:23:09.321Z,16.10
2019-05-23T21:25:39.928Z,17.13
2019-05-23T21:28:09.013Z,18.67
2019-05-23T21:30:37.964Z,18.63
2019-05-23T21:33:06.937Z,17.50
2019-05-23T21:35:35.883Z,14.57
2019-05-23T21:38:04.832Z,17.73
2019-05-23T21:40:35.331Z,15.83
2019-05-23T21:43:04.567Z,14.57
2019-05-23T21:45:33.867Z,15.47
2019-05-23T21:48:04.104Z,14.93
2019-05-23T21:50:33.427Z,15.93
2019-05-23T21:53:02.639Z,16.63
2019-05-23T21:55:35.587Z,17.93
2019-05-23T21:58:05.092Z,14.90
2019-05-23T22:01:07.700Z,17.57
2019-05-23T22:03:38.978Z,17.10
2019-05-23T22:06:09.594Z,17.40
2019-05-23T22:08:38.671Z,18.87
2019-05-23T22:11:07.684Z,21.03
2019-05-23T22:13:36.634Z,19.17
2019-05-23T22:16:05.670Z,20.30
2019-05-23T22:18:34.683Z,20.17
2019-05-23T22:21:03.728Z,22.70
2019-05-23T22:23:34.709Z,21.13
2019-05-23T22:26:03.345Z,23.73
2019-05-23T22:28:32.355Z,22.27
2019-05-23T22:31:01.305Z,20.47
2019-05-23T22:33:34.787Z,23.93
2019-05-23T22:36:04.971Z,20.53
2019-05-23T22:38:33.937Z,24.00
2019-05-23T22:41:02.970Z,19.07
2019-05-23T22:43:31.908Z,22.90
2019-05-23T22:46:00.860Z,21.07
2019-05-23T22:48:29.807Z,22.33
2019-05-23T22:50:58.794Z,24.53
2019-05-23T22:53:27.800Z,20.80
2019-05-23T22:55:56.756Z,20.93
2019-05-23T22:58:25.695Z,19.90
2019-05-23T23:00:54.652Z,22.23
2019-05-23T23:03:23.595Z,22.47
2019-05-23T23:05:52.548Z,20.93
2019-05-23T23:08:21.863Z,21.90
2019-05-23T23:10:50.824Z,23.90
2019-05-23T23:13:19.782Z,23.30
2019-05-23T23:15:48.751Z,20.83
2019-05-23T23:18:17.700Z,21.47
2019-05-23T23:20:46.714Z,21.67
2019-05-23T23:23:15.661Z,22.37
2019-05-23T23:25:44.608Z,23.17
2019-05-23T23:28:13.653Z,24.70
2019-05-23T23:30:44.310Z,22.97
2019-05-23T23:33:13.317Z,25.47
2019-05-23T23:35:42.261Z,21.83
2019-05-23T23:38:11.208Z,23.73
2019-05-23T23:40:40.175Z,21.53
2019-05-23T23:43:09.176Z,21.43
2019-05-23T23:45:55.725Z,23.73
2019-05-23T23:48:43.874Z,26.03
2019-05-23T23:51:30.861Z,24.43
2019-05-23T23:54:17.813Z,22.77
2019-05-23T23:57:04.560Z,25.50
2019-05-23T23:59:32.912Z,20.87
